createdAt,value
2019-02-06T00:01:05.958Z,13.90
2019-02-06T00:03:12.181Z,14.70
2019-02-06T00:05:17.845Z,19.57
2019-02-06T00:07:23.597Z,15.45
2019-02-06T00:09:29.899Z,18.15
2019-02-06T00:11:37.142Z,19.55
2019-02-06T00:13:42.872Z,31.52
2019-02-06T00:15:48.351Z,21.17
2019-02-06T00:17:54.501Z,22.25
2019-02-06T00:20:00.333Z,20.30
2019-02-06T00:22:08.678Z,27.42
2019-02-06T00:24:14.310Z,17.95
2019-02-06T00:26:21.809Z,16.73
2019-02-06T00:28:27.254Z,15.35
2019-02-06T00:30:33.001Z,13.55
2019-02-06T00:32:38.405Z,20.23
2019-02-06T00:34:43.902Z,25.62
2019-02-06T00:36:49.414Z,21.17
2019-02-06T00:38:54.970Z,14.70
2019-02-06T00:41:00.401Z,19.65
2019-02-06T00:43:06.383Z,18.07
2019-02-06T00:45:13.523Z,18.17
2019-02-06T00:47:20.886Z,22.70
2019-02-06T00:49:27.774Z,20.75
2019-02-06T00:51:33.288Z,18.45
2019-02-06T00:53:38.710Z,17.10
2019-02-06T00:55:44.665Z,23.35
2019-02-06T00:57:50.095Z,25.15
2019-02-06T00:59:58.459Z,21.97
2019-02-06T01:02:03.023Z,24.77
2019-02-06T01:04:08.691Z,26.95
2019-02-06T01:06:14.548Z,28.05
2019-02-06T01:08:20.442Z,29.20
2019-02-06T01:10:26.501Z,22.17
2019-02-06T01:12:32.001Z,23.87
2019-02-06T01:14:37.866Z,19.60
2019-02-06T01:16:43.436Z,16.77
2019-02-06T01:18:48.891Z,15.32
2019-02-06T01:20:54.365Z,15.68
2019-02-06T01:22:59.774Z,18.17
2019-02-06T01:25:07.183Z,18.02
2019-02-06T01:27:12.737Z,14.40
2019-02-06T01:29:23.445Z,11.57
2019-02-06T01:31:30.690Z,15.93
2019-02-06T01:33:36.761Z,15.70
2019-02-06T01:35:49.654Z,29.07
2019-02-06T01:37:49.359Z,24.12
2019-02-06T01:39:55.202Z,19.52
2019-02-06T01:42:00.834Z,26.20
2019-02-06T01:44:08.098Z,28.87
2019-02-06T01:46:13.525Z,28.95
2019-02-06T01:48:18.933Z,18.73
2019-02-06T01:50:24.426Z,18.67
2019-02-06T01:52:30.117Z,22.75
2019-02-06T01:54:36.441Z,15.68
2019-02-06T01:56:42.026Z,15.60
2019-02-06T01:58:47.425Z,19.42
2019-02-06T02:00:53.755Z,16.02
2019-02-06T02:03:01.198Z,18.80
2019-02-06T02:05:07.078Z,16.20
2019-02-06T02:07:13.137Z,11.75
2019-02-06T02:09:21.541Z,17.55
2019-02-06T02:11:27.134Z,15.18
2019-02-06T02:13:36.654Z,23.40
2019-02-06T02:15:42.070Z,20.80
2019-02-06T02:17:47.506Z,10.35
2019-02-06T02:19:54.449Z,14.23
2019-02-06T02:21:59.990Z,20.25
2019-02-06T02:24:05.436Z,26.70
2019-02-06T02:26:11.260Z,23.80
2019-02-06T02:28:16.912Z,26.75
2019-02-06T02:30:29.042Z,28.52
2019-02-06T02:32:35.113Z,26.90
2019-02-06T02:34:41.587Z,23.87
2019-02-06T02:36:47.281Z,36.58
2019-02-06T02:38:54.803Z,33.33
2019-02-06T02:41:01.829Z,25.23
2019-02-06T02:43:10.061Z,26.75
2019-02-06T02:45:21.909Z,19.02
2019-02-06T02:47:27.385Z,20.85
2019-02-06T02:49:32.889Z,25.95
2019-02-06T02:51:38.405Z,22.40
2019-02-06T02:53:44.245Z,16.52
2019-02-06T02:55:49.689Z,20.00
2019-02-06T02:57:55.217Z,18.00
2019-02-06T03:00:01.337Z,18.30
2019-02-06T03:02:24.286Z,17.20
2019-02-06T03:04:32.843Z,15.25
2019-02-06T03:06:39.214Z,14.87
2019-02-06T03:08:44.715Z,19.32
2019-02-06T03:10:50.252Z,16.75
2019-02-06T03:12:55.766Z,13.68
2019-02-06T03:15:01.737Z,13.80
2019-02-06T03:17:09.386Z,16.85
2019-02-06T03:19:14.878Z,20.62
2019-02-06T03:21:20.293Z,16.55
2019-02-06T03:23:25.758Z,19.37
2019-02-06T03:25:31.861Z,14.83
2019-02-06T03:27:37.939Z,14.45
2019-02-06T03:29:46.198Z,11.90
2019-02-06T03:31:52.108Z,12.45
2019-02-06T03:33:57.766Z,15.93
2019-02-06T03:36:16.426Z,13.05
2019-02-06T03:38:21.910Z,10.75
2019-02-06T03:40:27.367Z,10.58
2019-02-06T03:42:33.446Z,11.33
2019-02-06T03:44:39.137Z,10.60
2019-02-06T03:46:44.809Z,9.50
2019-02-06T03:48:52.158Z,8.25
2019-02-06T03:50:57.940Z,17.57
2019-02-06T03:53:03.441Z,16.12
2019-02-06T03:55:11.260Z,27.73
2019-02-06T03:57:17.466Z,23.98
2019-02-06T03:59:22.940Z,17.10
2019-02-06T04:01:29.393Z,13.38
2019-02-06T04:03:34.830Z,10.93
2019-02-06T04:05:40.760Z,13.05
2019-02-06T04:07:46.943Z,14.95
2019-02-06T04:09:53.227Z,12.40
2019-02-06T04:11:58.926Z,10.15
2019-02-06T04:14:08.894Z,12.73
2019-02-06T04:16:14.880Z,10.15
2019-02-06T04:18:20.468Z,9.35
2019-02-06T04:20:26.051Z,12.58
2019-02-06T04:22:33.245Z,13.45
2019-02-06T04:24:38.778Z,12.05
2019-02-06T04:26:44.277Z,12.00
2019-02-06T04:28:49.703Z,14.23
2019-02-06T04:30:55.803Z,12.50
2019-02-06T04:33:01.327Z,11.65
2019-02-06T04:35:08.726Z,12.15
2019-02-06T04:37:14.259Z,14.80
2019-02-06T04:39:19.763Z,15.43
2019-02-06T04:41:25.840Z,15.60
2019-02-06T04:43:31.641Z,15.45
2019-02-06T04:45:37.110Z,12.35
2019-02-06T04:47:42.617Z,11.85
2019-02-06T04:49:48.338Z,16.52
2019-02-06T04:51:53.963Z,22.13
2019-02-06T04:54:01.641Z,28.55
2019-02-06T04:56:07.057Z,20.20
2019-02-06T04:58:13.031Z,19.25
2019-02-06T05:00:22.461Z,16.75
2019-02-06T05:02:28.162Z,15.98
2019-02-06T05:04:33.665Z,16.70
2019-02-06T05:06:39.398Z,17.87
2019-02-06T05:08:44.893Z,19.00
2019-02-06T05:10:50.323Z,10.35
2019-02-06T05:12:56.205Z,13.95
2019-02-06T05:15:01.763Z,16.75
2019-02-06T05:17:09.769Z,11.73
2019-02-06T05:19:15.562Z,13.80
2019-02-06T05:21:21.118Z,12.93
2019-02-06T05:23:29.515Z,12.93
2019-02-06T05:25:35.319Z,16.35
2019-02-06T05:27:40.810Z,11.48
2019-02-06T05:29:52.822Z,13.10
2019-02-06T05:31:58.835Z,10.93
2019-02-06T05:34:08.985Z,14.40
2019-02-06T05:36:14.536Z,11.65
2019-02-06T05:38:20.073Z,15.90
2019-02-06T05:40:25.574Z,12.55
2019-02-06T05:42:31.158Z,12.03
2019-02-06T05:44:37.503Z,12.35
2019-02-06T05:46:43.551Z,10.53
2019-02-06T05:48:54.588Z,13.30
2019-02-06T05:51:00.080Z,11.30
2019-02-06T05:53:05.622Z,9.00
2019-02-06T05:55:11.669Z,9.15
2019-02-06T05:57:17.662Z,7.83
2019-02-06T05:59:23.418Z,9.75
2019-02-06T06:01:28.999Z,13.05
2019-02-06T06:03:34.930Z,14.65
2019-02-06T06:05:40.682Z,9.03
2019-02-06T06:07:48.361Z,7.60
2019-02-06T06:09:54.122Z,7.17
2019-02-06T06:11:59.623Z,7.80
2019-02-06T06:14:05.681Z,9.80
2019-02-06T06:16:11.710Z,9.60
2019-02-06T06:18:17.975Z,10.85
2019-02-06T06:20:27.537Z,7.60
2019-02-06T06:22:34.283Z,9.30
2019-02-06T06:24:44.451Z,6.65
2019-02-06T06:26:50.044Z,10.70
2019-02-06T06:28:55.909Z,11.95
2019-02-06T06:31:01.390Z,9.20
2019-02-06T06:33:07.631Z,9.80
2019-02-06T06:35:13.579Z,6.85
2019-02-06T06:37:19.084Z,8.10
2019-02-06T06:39:24.719Z,10.10
2019-02-06T06:41:30.506Z,7.75
2019-02-06T06:43:36.138Z,11.25
2019-02-06T06:45:42.666Z,13.22
2019-02-06T06:47:48.105Z,7.50
2019-02-06T06:49:54.098Z,14.35
2019-02-06T06:52:00.095Z,16.48
2019-02-06T06:54:11.573Z,17.70
2019-02-06T06:56:17.446Z,15.75
2019-02-06T06:58:24.213Z,17.67
2019-02-06T07:00:31.007Z,15.05
2019-02-06T07:02:36.988Z,12.53
2019-02-06T07:04:42.461Z,10.60
2019-02-06T07:06:47.897Z,10.05
2019-02-06T07:08:53.545Z,10.32
2019-02-06T07:11:02.730Z,14.15
2019-02-06T07:13:08.227Z,11.55
2019-02-06T07:15:19.134Z,9.78
2019-02-06T07:17:24.766Z,14.00
2019-02-06T07:19:30.531Z,8.53
2019-02-06T07:21:35.942Z,9.55
2019-02-06T07:23:42.297Z,7.53
2019-02-06T07:25:48.135Z,8.83
2019-02-06T07:27:53.605Z,13.68
2019-02-06T07:30:01.578Z,8.55
2019-02-06T07:32:07.048Z,9.28
2019-02-06T07:34:13.330Z,11.00
2019-02-06T07:36:21.747Z,10.70
2019-02-06T07:38:27.647Z,11.60
2019-02-06T07:40:33.101Z,10.58
2019-02-06T07:42:41.229Z,11.15
2019-02-06T07:44:46.985Z,12.37
2019-02-06T07:46:52.489Z,10.20
2019-02-06T07:48:59.393Z,9.18
2019-02-06T07:51:04.899Z,11.15
2019-02-06T11:25:14.577Z,11.67
2019-02-06T11:43:02.565Z,11.33
2019-02-06T11:50:22.748Z,6.97
2019-02-06T12:05:48.485Z,6.47
2019-02-06T12:17:09.738Z,9.20
2019-02-06T12:32:38.992Z,8.90
2019-02-06T12:43:42.630Z,10.05
2019-02-06T12:58:15.626Z,11.40
2019-02-06T14:24:56.124Z,14.33
2019-02-06T14:36:02.617Z,13.03
2019-02-06T15:26:07.368Z,16.85
2019-02-06T16:04:29.183Z,12.73
2019-02-06T16:07:13.853Z,13.70
2019-02-06T16:09:53.233Z,31.20
2019-02-06T16:12:45.433Z,28.12
2019-02-06T16:15:24.224Z,22.55
2019-02-06T16:18:09.374Z,19.60
2019-02-06T16:21:02.193Z,26.80
2019-02-06T16:23:35.034Z,18.48
2019-02-06T16:26:14.481Z,18.77
2019-02-06T16:28:49.732Z,18.10
2019-02-06T16:31:20.755Z,20.57
2019-02-06T16:34:10.290Z,19.75
2019-02-06T16:36:55.792Z,26.75
2019-02-06T16:39:45.597Z,25.30
2019-02-06T16:42:43.629Z,31.35
2019-02-06T16:44:59.921Z,25.82
2019-02-06T16:47:33.189Z,20.30
2019-02-06T16:50:19.426Z,21.60
2019-02-06T16:53:05.081Z,18.02
2019-02-06T16:55:36.848Z,18.20
2019-02-06T16:58:08.469Z,19.02
2019-02-06T17:00:56.377Z,18.52
2019-02-06T17:03:44.581Z,15.93
2019-02-06T17:06:01.006Z,17.98
2019-02-06T17:08:52.553Z,16.87
2019-02-06T17:11:22.905Z,12.43
2019-02-06T17:14:30.513Z,13.60
2019-02-06T17:17:03.405Z,17.70
2019-02-06T17:19:40.206Z,17.32
2019-02-06T17:22:32.736Z,15.95
2019-02-06T17:25:08.791Z,17.65
2019-02-06T17:27:40.920Z,22.10
2019-02-06T17:30:17.025Z,17.73
2019-02-06T17:33:28.149Z,22.65
2019-02-06T17:36:02.970Z,20.70
2019-02-06T17:39:01.512Z,19.98
2019-02-06T17:41:48.211Z,19.67
2019-02-06T17:44:08.727Z,21.80
2019-02-06T17:46:38.774Z,22.35
2019-02-06T17:49:16.291Z,22.60
2019-02-06T17:51:58.519Z,22.32
2019-02-06T17:54:44.085Z,23.73
2019-02-06T17:56:51.886Z,24.52
2019-02-06T17:58:57.948Z,28.23
2019-02-06T18:01:32.901Z,20.45
2019-02-06T18:03:42.496Z,20.50
2019-02-06T18:05:48.305Z,20.68
2019-02-06T18:07:53.949Z,20.72
2019-02-06T18:10:07.905Z,27.60
2019-02-06T18:12:14.658Z,20.35
2019-02-06T18:14:20.458Z,25.43
2019-02-06T18:16:27.886Z,25.20
2019-02-06T18:18:34.878Z,26.48
2019-02-06T18:20:40.533Z,31.87
2019-02-06T18:22:54.767Z,28.73
2019-02-06T18:25:02.156Z,31.85
2019-02-06T18:27:07.801Z,28.02
2019-02-06T18:29:20.218Z,34.53
2019-02-06T18:31:26.566Z,29.67
2019-02-06T18:33:32.095Z,24.50
2019-02-06T18:35:41.709Z,26.25
2019-02-06T18:37:49.458Z,25.35
2019-02-06T18:39:56.675Z,26.35
2019-02-06T18:42:02.213Z,39.10
2019-02-06T18:44:07.725Z,22.00
2019-02-06T18:46:13.306Z,26.93
2019-02-06T18:48:23.877Z,29.52
2019-02-06T18:50:31.151Z,28.87
2019-02-06T18:52:36.723Z,21.68
2019-02-06T18:54:46.881Z,22.17
2019-02-06T18:56:54.082Z,26.42
2019-02-06T18:58:59.595Z,36.85
2019-02-06T19:01:06.483Z,30.75
2019-02-06T19:03:17.186Z,28.23
2019-02-06T19:05:25.386Z,28.50
2019-02-06T19:07:30.898Z,32.80
2019-02-06T19:09:36.422Z,27.45
2019-02-06T19:11:42.242Z,32.13
2019-02-06T19:13:49.322Z,30.52
2019-02-06T19:15:56.630Z,28.87
2019-02-06T19:18:02.054Z,38.75
2019-02-06T19:20:09.438Z,29.30
2019-02-06T19:22:15.465Z,28.77
2019-02-06T19:24:21.611Z,32.00
2019-02-06T19:26:27.548Z,24.45
2019-02-06T19:28:33.053Z,21.75
2019-02-06T19:30:39.869Z,22.67
2019-02-06T19:32:46.019Z,30.70
2019-02-06T19:34:51.849Z,26.15
2019-02-06T19:36:58.138Z,29.12
2019-02-06T19:39:09.096Z,30.92
2019-02-06T19:41:15.107Z,28.62
2019-02-06T19:43:21.135Z,26.20
2019-02-06T19:45:29.941Z,27.05
2019-02-06T19:47:35.905Z,26.65
2019-02-06T19:49:41.866Z,23.67
2019-02-06T19:51:47.705Z,30.37
2019-02-06T19:53:53.439Z,26.05
2019-02-06T19:55:59.195Z,37.08
2019-02-06T19:58:06.039Z,35.78
2019-02-06T20:00:15.238Z,26.10
2019-02-06T20:02:20.773Z,26.93
2019-02-06T20:04:28.693Z,27.07
2019-02-06T20:06:34.468Z,29.70
2019-02-06T20:08:40.621Z,28.85
2019-02-06T20:10:47.767Z,25.97
2019-02-06T20:12:53.313Z,23.75
2019-02-06T20:14:58.821Z,21.75
2019-02-06T20:17:05.829Z,23.80
2019-02-06T20:19:11.439Z,23.45
2019-02-06T20:21:18.165Z,22.55
2019-02-06T20:23:24.033Z,21.02
2019-02-06T20:25:29.639Z,20.05
2019-02-06T20:27:38.717Z,19.07
2019-02-06T20:29:44.421Z,18.50
2019-02-06T20:31:50.034Z,17.35
2019-02-06T20:33:55.847Z,16.32
2019-02-06T20:36:03.596Z,16.32
2019-02-06T20:38:09.221Z,21.97
2019-02-06T20:40:23.066Z,25.15
2019-02-06T20:42:29.239Z,20.65
2019-02-06T20:44:35.873Z,28.10
2019-02-06T20:46:49.910Z,26.80
2019-02-06T20:48:56.550Z,35.92
2019-02-06T20:51:04.282Z,35.35
2019-02-06T21:03:29.276Z,30.15
2019-02-06T21:05:35.026Z,41.13
2019-02-06T21:07:40.996Z,36.00
2019-02-06T21:09:47.151Z,37.63
2019-02-06T21:11:52.718Z,50.17
2019-02-06T21:13:58.599Z,71.37
2019-02-06T21:16:04.260Z,61.15
2019-02-06T21:18:11.396Z,52.10
2019-02-06T21:20:18.877Z,51.15
2019-02-06T21:22:24.571Z,52.10
2019-02-06T21:24:33.184Z,37.20
2019-02-06T21:26:39.890Z,31.93
2019-02-06T21:28:46.353Z,40.25
2019-02-06T21:30:52.750Z,36.20
2019-02-06T21:32:58.984Z,22.35
2019-02-06T21:35:06.269Z,25.32
2019-02-06T21:37:13.662Z,37.23
2019-02-06T21:39:20.970Z,45.98
2019-02-06T21:41:27.948Z,41.77
2019-02-06T21:43:43.909Z,41.05
2019-02-06T21:45:42.134Z,28.83
2019-02-06T21:47:48.022Z,27.65
2019-02-06T21:49:56.746Z,27.40
2019-02-06T21:52:05.632Z,31.95
2019-02-06T21:54:11.214Z,33.48
2019-02-06T21:56:16.717Z,29.37
2019-02-06T21:58:22.721Z,31.65
2019-02-06T22:00:30.526Z,30.52
2019-02-06T22:02:37.098Z,21.20
2019-02-06T22:04:42.665Z,18.90
2019-02-06T22:06:48.345Z,24.67
2019-02-06T22:08:54.137Z,22.05
2019-02-06T22:11:00.158Z,24.77
2019-02-06T22:13:06.146Z,21.10
2019-02-06T22:15:14.722Z,27.45
2019-02-06T22:17:20.200Z,25.92
2019-02-06T22:19:25.875Z,23.40
2019-02-06T22:21:31.832Z,25.35
2019-02-06T22:23:38.032Z,28.62
2019-02-06T22:25:44.155Z,27.77
2019-02-06T22:27:50.676Z,25.37
2019-02-06T22:29:56.483Z,26.02
2019-02-06T22:32:02.106Z,26.55
2019-02-06T22:34:09.197Z,23.92
2019-02-06T22:36:14.629Z,27.00
2019-02-06T22:38:20.942Z,26.35
2019-02-06T22:40:28.810Z,24.05
2019-02-06T22:42:34.764Z,20.62
2019-02-06T22:44:40.522Z,20.82
2019-02-06T22:46:48.438Z,25.48
2019-02-06T22:48:53.966Z,26.30
2019-02-06T22:50:59.701Z,20.45
2019-02-06T22:53:06.304Z,18.55
2019-02-06T22:55:13.270Z,22.15
2019-02-06T22:57:21.109Z,19.45
2019-02-06T22:59:26.845Z,17.02
2019-02-06T23:01:38.398Z,29.77
2019-02-06T23:03:46.206Z,56.90
2019-02-06T23:05:51.654Z,44.70
2019-02-06T23:07:57.439Z,29.23
2019-02-06T23:10:03.067Z,26.37
2019-02-06T23:12:08.826Z,20.05
2019-02-06T23:14:18.827Z,23.32
2019-02-06T23:16:25.550Z,20.55
2019-02-06T23:18:31.237Z,25.97
2019-02-06T23:20:37.225Z,22.35
2019-02-06T23:22:43.182Z,28.00
2019-02-06T23:24:48.678Z,20.57
2019-02-06T23:26:54.401Z,18.92
2019-02-06T23:29:01.733Z,18.25
2019-02-06T23:31:13.182Z,20.25
2019-02-06T23:33:18.656Z,22.35
2019-02-06T23:35:24.376Z,19.37
2019-02-06T23:37:32.349Z,24.47
2019-02-06T23:39:38.169Z,24.63
2019-02-06T23:41:44.051Z,23.73
2019-02-06T23:43:50.738Z,18.92
2019-02-06T23:45:56.146Z,18.02
2019-02-06T23:48:01.640Z,18.70
2019-02-06T23:50:07.373Z,18.12
2019-02-06T23:52:12.878Z,21.30
2019-02-06T23:54:18.543Z,22.82
2019-02-06T23:56:23.998Z,22.32
2019-02-06T23:58:29.729Z,18.00
